createdAt,value
2022-08-10T00:00:39.276Z,69.34
2022-08-10T00:01:39.335Z,69.75
2022-08-10T00:02:39.267Z,69.75
2022-08-10T00:03:39.261Z,70.15
2022-08-10T00:04:39.254Z,69.98
2022-08-10T00:05:43.383Z,70.05
2022-08-10T00:06:40.240Z,70.18
2022-08-10T00:07:39.220Z,70.59
2022-08-10T00:08:39.216Z,70.18
2022-08-10T00:09:50.694Z,70.69
2022-08-10T00:10:40.197Z,70.93
2022-08-10T00:11:39.194Z,71.64
2022-08-10T00:12:53.670Z,71.03
2022-08-10T00:13:40.178Z,71.23
2022-08-10T00:14:39.176Z,71.13
2022-08-10T00:15:52.023Z,71.13
2022-08-10T00:16:40.152Z,71.23
2022-08-10T00:17:39.140Z,71.13
2022-08-10T00:18:39.143Z,71.23
2022-08-10T00:20:03.162Z,70.73
2022-08-10T00:20:40.113Z,70.93
2022-08-10T00:21:39.114Z,70.52
2022-08-10T00:22:52.826Z,71.09
2022-08-10T00:23:40.100Z,70.89
2022-08-10T00:24:43.044Z,70.69
2022-08-10T00:25:40.079Z,70.69
2022-08-10T00:27:52.495Z,70.49
2022-08-10T00:27:52.570Z,70.49
2022-08-10T00:28:40.054Z,70.49
2022-08-10T00:29:39.048Z,70.49
2022-08-10T00:30:39.041Z,70.49
2022-08-10T00:32:39.172Z,71.00
2022-08-10T00:33:39.172Z,71.20
2022-08-10T00:34:39.164Z,71.13
2022-08-10T00:35:39.153Z,70.89
2022-08-10T00:36:39.143Z,71.00
2022-08-10T00:37:39.139Z,71.03
2022-08-10T00:38:40.216Z,71.53
2022-08-10T00:39:40.258Z,71.44
2022-08-10T00:40:40.207Z,71.77
2022-08-10T00:41:40.193Z,71.77
2022-08-10T00:42:40.188Z,71.77
2022-08-10T00:43:40.181Z,72.38
2022-08-10T00:44:40.186Z,71.77
2022-08-10T00:45:40.177Z,71.97
2022-08-10T00:46:40.154Z,72.52
2022-08-10T00:47:40.146Z,72.31
2022-08-10T00:48:40.141Z,72.58
2022-08-10T00:49:40.133Z,72.31
2022-08-10T00:50:40.123Z,72.81
2022-08-10T00:51:43.114Z,73.22
2022-08-10T00:52:41.107Z,73.32
2022-08-10T00:53:40.093Z,73.32
2022-08-10T00:54:40.089Z,73.43
2022-08-10T00:57:12.372Z,73.36
2022-08-10T00:57:17.038Z,73.56
2022-08-10T00:57:41.061Z,73.56
2022-08-10T00:58:40.054Z,73.86
2022-08-10T00:59:59.138Z,74.07
2022-08-10T01:00:41.052Z,73.86
2022-08-10T01:02:09.840Z,73.97
2022-08-10T01:02:41.130Z,74.07
2022-08-10T01:04:36.778Z,73.97
2022-08-10T01:04:59.914Z,74.37
2022-08-10T01:05:51.227Z,74.57
2022-08-10T01:06:40.991Z,74.57
2022-08-10T01:07:39.987Z,74.57
2022-08-10T01:08:39.980Z,74.91
2022-08-10T01:09:40.559Z,74.81
2022-08-10T01:10:40.167Z,74.61
2022-08-10T01:12:40.981Z,75.12
2022-08-10T01:12:41.724Z,74.81
2022-08-10T01:13:40.939Z,74.81
2022-08-10T01:14:39.929Z,74.61
2022-08-10T01:15:40.138Z,74.54
2022-08-10T01:16:39.920Z,75.46
2022-08-10T01:17:50.207Z,75.25
2022-08-10T01:18:42.001Z,75.05
2022-08-10T01:19:39.887Z,74.95
2022-08-10T01:20:39.879Z,75.76
2022-08-10T01:21:39.895Z,75.35
2022-08-10T01:22:40.878Z,75.25
2022-08-10T01:23:39.857Z,75.76
2022-08-10T01:24:39.856Z,75.66
2022-08-10T01:26:10.827Z,75.76
2022-08-10T01:26:41.148Z,76.40
2022-08-10T01:27:39.836Z,76.10
2022-08-10T01:28:39.822Z,76.00
2022-08-10T01:29:39.812Z,76.20
2022-08-10T01:30:39.809Z,76.31
2022-08-10T01:31:39.833Z,76.31
2022-08-10T01:32:39.788Z,76.31
2022-08-10T01:33:58.393Z,76.31
2022-08-10T01:34:40.768Z,76.31
2022-08-10T01:35:39.762Z,76.31
2022-08-10T01:36:39.753Z,76.10
2022-08-10T01:37:39.757Z,76.20
2022-08-10T01:38:40.569Z,76.20
2022-08-10T01:39:39.778Z,76.31
2022-08-10T01:40:39.722Z,76.31
2022-08-10T01:41:45.579Z,76.20
2022-08-10T01:42:40.711Z,76.31
2022-08-10T01:43:39.699Z,76.20
2022-08-10T01:44:39.680Z,76.31
2022-08-10T01:45:45.149Z,76.20
2022-08-10T01:46:40.662Z,76.10
2022-08-10T01:47:39.678Z,76.20
2022-08-10T01:48:39.654Z,75.90
2022-08-10T01:49:39.657Z,76.00
2022-08-10T01:50:53.213Z,75.79
2022-08-10T01:51:40.631Z,76.00
2022-08-10T01:52:39.626Z,76.20
2022-08-10T01:53:41.022Z,76.10
2022-08-10T01:54:39.623Z,76.20
2022-08-10T01:55:39.603Z,76.00
2022-08-10T01:56:39.609Z,76.10
2022-08-10T01:57:39.582Z,76.34
2022-08-10T01:58:39.583Z,76.20
2022-08-10T01:59:39.575Z,76.51
2022-08-10T02:00:39.562Z,76.64
2022-08-10T02:01:39.587Z,76.61
2022-08-10T02:02:39.542Z,76.54
2022-08-10T02:04:03.479Z,76.64
2022-08-10T02:04:40.533Z,76.34
2022-08-10T02:05:39.522Z,76.34
2022-08-10T02:06:40.523Z,76.85
2022-08-10T02:07:39.509Z,76.75
2022-08-10T02:08:39.504Z,76.81
2022-08-10T02:09:39.495Z,77.15
2022-08-10T02:10:39.483Z,77.45
2022-08-10T02:12:06.254Z,77.05
2022-08-10T02:12:40.464Z,77.86
2022-08-10T02:13:39.459Z,77.76
2022-08-10T02:14:39.462Z,77.70
2022-08-10T02:15:39.440Z,77.49
2022-08-10T02:16:40.450Z,77.56
2022-08-10T02:17:57.712Z,77.66
2022-08-10T02:18:40.421Z,77.59
2022-08-10T02:19:39.414Z,77.70
2022-08-10T02:20:39.413Z,77.86
2022-08-10T02:21:39.406Z,77.59
2022-08-10T02:22:40.393Z,77.90
2022-08-10T02:23:39.379Z,78.10
2022-08-10T02:24:39.377Z,77.59
2022-08-10T02:25:41.774Z,77.39
2022-08-10T02:26:39.353Z,77.49
2022-08-10T02:27:39.347Z,78.20
2022-08-10T02:28:39.342Z,77.29
2022-08-10T02:29:42.362Z,78.00
2022-08-10T02:30:39.330Z,77.49
2022-08-10T02:31:39.341Z,77.39
2022-08-10T02:32:39.614Z,78.61
2022-08-10T02:33:39.300Z,77.90
2022-08-10T02:34:40.292Z,78.30
2022-08-10T02:35:55.146Z,78.00
2022-08-10T02:36:40.270Z,78.30
2022-08-10T02:37:39.277Z,78.10
2022-08-10T02:38:59.118Z,77.90
2022-08-10T02:39:40.319Z,78.00
2022-08-10T02:45:02.154Z,78.61
2022-08-10T02:45:02.455Z,78.20
2022-08-10T02:45:17.813Z,77.94
2022-08-10T02:45:24.535Z,78.20
2022-08-10T02:45:29.225Z,77.70
2022-08-10T02:45:41.202Z,78.55
2022-08-10T02:46:39.192Z,78.20
2022-08-10T02:47:46.615Z,78.55
2022-08-10T02:48:40.197Z,78.64
2022-08-10T02:49:39.174Z,78.85
2022-08-10T02:50:39.169Z,78.64
2022-08-10T02:52:06.206Z,79.25
2022-08-10T02:52:40.158Z,78.95
2022-08-10T02:53:51.734Z,78.75
2022-08-10T02:54:40.152Z,78.85
2022-08-10T02:55:39.136Z,79.25
2022-08-10T02:56:39.132Z,78.64
2022-08-10T02:58:16.833Z,78.55
2022-08-10T02:58:40.108Z,78.85
2022-08-10T02:59:39.970Z,79.36
2022-08-10T03:00:39.144Z,78.75
2022-08-10T03:01:39.176Z,79.25
2022-08-10T03:02:39.079Z,79.05
2022-08-10T03:03:39.067Z,79.46
2022-08-10T03:04:55.442Z,79.39
2022-08-10T03:05:40.054Z,79.90
2022-08-10T03:06:39.066Z,80.21
2022-08-10T03:07:43.360Z,80.31
2022-08-10T03:08:40.031Z,80.41
2022-08-10T03:09:39.035Z,80.21
2022-08-10T03:10:39.759Z,80.31
2022-08-10T03:12:37.805Z,80.00
2022-08-10T03:12:40.003Z,80.21
2022-08-10T03:13:38.987Z,79.80
2022-08-10T03:14:38.985Z,80.11
2022-08-10T03:15:38.977Z,79.80
2022-08-10T03:16:38.978Z,79.80
2022-08-10T03:17:38.976Z,79.90
2022-08-10T03:18:38.959Z,79.90
2022-08-10T03:20:35.312Z,79.86
2022-08-10T03:20:40.352Z,79.90
2022-08-10T03:21:39.928Z,79.70
2022-08-10T03:22:38.921Z,79.80
2022-08-10T03:23:38.914Z,79.80
2022-08-10T03:24:38.903Z,79.80
2022-08-10T03:25:38.904Z,80.41
2022-08-10T03:26:38.887Z,79.90
2022-08-10T03:27:38.881Z,79.80
2022-08-10T03:28:38.880Z,80.00
2022-08-10T03:30:23.405Z,80.00
2022-08-10T03:30:39.885Z,80.41
2022-08-10T03:31:40.313Z,80.21
2022-08-10T03:32:38.843Z,79.80
2022-08-10T03:33:38.841Z,80.00
2022-08-10T03:34:38.825Z,80.31
2022-08-10T03:35:38.830Z,80.21
2022-08-10T03:36:40.427Z,80.41
2022-08-10T03:37:39.804Z,80.41
2022-08-10T03:38:38.799Z,80.21
2022-08-10T03:39:38.859Z,79.90
2022-08-10T03:40:45.643Z,79.70
2022-08-10T03:41:39.803Z,79.90
2022-08-10T03:42:38.759Z,79.80
2022-08-10T03:43:38.767Z,79.80
2022-08-10T03:44:38.742Z,79.90
2022-08-10T03:45:55.152Z,79.90
2022-08-10T03:46:39.733Z,79.90
2022-08-10T03:47:38.725Z,79.80
2022-08-10T03:48:49.023Z,79.80
2022-08-10T03:49:39.708Z,79.90
2022-08-10T03:50:51.520Z,79.77
2022-08-10T03:51:39.694Z,80.41
2022-08-10T03:52:38.695Z,80.31
2022-08-10T03:54:04.941Z,80.21
2022-08-10T03:54:39.669Z,80.31
2022-08-10T03:56:30.017Z,80.51
2022-08-10T03:56:40.657Z,80.31
2022-08-10T03:57:49.263Z,80.41
2022-08-10T03:58:39.628Z,80.51
2022-08-10T03:59:38.628Z,80.41
2022-08-10T04:00:38.648Z,80.72
2022-08-10T04:02:44.210Z,80.41
2022-08-10T04:02:46.314Z,80.51
2022-08-10T04:03:39.601Z,80.41
2022-08-10T04:04:38.588Z,80.31
2022-08-10T04:05:39.146Z,80.41
2022-08-10T04:06:38.591Z,80.31
2022-08-10T04:07:38.577Z,80.41
2022-08-10T04:08:38.564Z,79.90
2022-08-10T04:09:55.588Z,79.80
2022-08-10T04:10:39.553Z,79.97
2022-08-10T04:11:40.555Z,80.31
2022-08-10T04:12:38.524Z,80.00
2022-08-10T04:13:38.523Z,79.90
2022-08-10T04:14:50.683Z,80.11
2022-08-10T04:15:39.501Z,79.90
2022-08-10T04:16:38.522Z,79.70
2022-08-10T04:18:04.446Z,80.41
2022-08-10T04:18:39.489Z,80.15
2022-08-10T04:19:38.477Z,80.41
2022-08-10T04:20:38.468Z,80.45
2022-08-10T04:21:39.681Z,80.45
2022-08-10T04:22:38.454Z,80.65
2022-08-10T04:23:38.441Z,80.35
2022-08-10T04:24:39.115Z,80.55
2022-08-10T04:25:38.439Z,80.41
2022-08-10T04:26:38.427Z,80.21
2022-08-10T04:27:38.422Z,80.35
2022-08-10T04:28:38.439Z,80.51
2022-08-10T04:29:38.409Z,80.55
2022-08-10T04:30:38.395Z,80.35
2022-08-10T04:31:38.381Z,80.55
2022-08-10T04:32:38.378Z,80.45
2022-08-10T04:33:38.376Z,80.21
2022-08-10T04:34:38.362Z,79.80
2022-08-10T04:35:38.360Z,79.80
2022-08-10T04:36:38.358Z,79.29
2022-08-10T04:37:47.132Z,79.16
2022-08-10T04:38:39.336Z,79.09
2022-08-10T04:39:38.347Z,79.16
2022-08-10T04:40:38.325Z,78.75
2022-08-10T04:41:38.314Z,78.55
2022-08-10T04:42:39.295Z,77.90
2022-08-10T04:43:38.301Z,77.59
2022-08-10T04:44:38.283Z,77.59
2022-08-10T04:45:49.357Z,77.36
2022-08-10T04:46:56.129Z,76.75
2022-08-10T04:47:58.054Z,76.24
2022-08-10T04:48:42.716Z,76.20
2022-08-10T04:49:54.510Z,75.90
2022-08-10T04:50:39.246Z,74.95
2022-08-10T04:51:38.238Z,74.91
2022-08-10T04:52:38.349Z,73.76
2022-08-10T04:54:03.957Z,73.43
2022-08-10T04:54:39.205Z,72.17
2022-08-10T04:55:38.224Z,71.44
2022-08-10T04:56:38.239Z,70.79
2022-08-10T04:57:38.192Z,70.49
2022-08-10T04:58:38.175Z,69.62
2022-08-10T04:59:38.174Z,69.11
2022-08-10T05:00:38.265Z,68.47
2022-08-10T05:02:22.568Z,67.02
2022-08-10T05:02:39.183Z,67.23
2022-08-10T05:04:36.776Z,67.06
2022-08-10T05:04:39.495Z,67.46
2022-08-10T05:05:39.113Z,67.26
2022-08-10T05:06:38.113Z,68.07
2022-08-10T05:07:53.795Z,66.96
2022-08-10T05:08:39.091Z,66.82
2022-08-10T05:10:02.276Z,67.02
2022-08-10T05:10:39.635Z,66.59
2022-08-10T05:11:38.063Z,66.08
2022-08-10T05:12:39.044Z,65.35
2022-08-10T05:13:38.049Z,65.75
2022-08-10T05:14:38.038Z,64.81
2022-08-10T05:15:38.032Z,65.52
2022-08-10T05:16:38.025Z,65.22
2022-08-10T05:17:38.025Z,64.48
2022-08-10T05:18:38.018Z,63.75
2022-08-10T05:20:04.007Z,62.71
2022-08-10T05:20:39.001Z,62.24
2022-08-10T05:22:03.669Z,61.11
2022-08-10T05:22:39.368Z,60.11
2022-08-10T05:23:37.976Z,60.41
2022-08-10T05:24:37.966Z,60.31
2022-08-10T05:25:38.305Z,60.11
2022-08-10T05:26:42.288Z,60.08
2022-08-10T05:27:40.638Z,59.58
2022-08-10T05:28:37.937Z,60.18
2022-08-10T05:29:38.306Z,59.14
2022-08-10T05:31:25.619Z,58.81
2022-08-10T05:32:25.603Z,57.79
2022-08-10T05:33:26.193Z,57.26
2022-08-10T05:34:25.589Z,57.03
2022-08-10T05:35:25.585Z,57.03
2022-08-10T05:36:25.574Z,57.23
2022-08-10T05:38:10.158Z,56.43
2022-08-10T05:38:27.858Z,57.03
2022-08-10T05:39:59.762Z,57.43
2022-08-10T05:40:26.631Z,56.80
2022-08-10T05:41:26.627Z,56.80
2022-08-10T05:42:27.005Z,55.87
2022-08-10T05:43:26.611Z,55.57
2022-08-10T05:44:26.607Z,56.20
2022-08-10T05:45:26.594Z,56.52
2022-08-10T05:46:26.591Z,57.35
2022-08-10T05:47:26.566Z,57.28
2022-08-10T05:48:55.910Z,57.08
2022-08-10T05:49:27.573Z,57.61
2022-08-10T05:50:26.556Z,58.22
2022-08-10T05:51:26.549Z,58.81
2022-08-10T05:52:26.562Z,58.29
2022-08-10T05:54:03.257Z,57.48
2022-08-10T05:54:27.517Z,57.76
2022-08-10T05:55:26.510Z,56.83
2022-08-10T05:56:26.506Z,56.73
2022-08-10T05:57:27.491Z,57.23
2022-08-10T05:58:26.498Z,56.50
2022-08-10T06:00:35.746Z,56.07
2022-08-10T06:00:37.544Z,55.24
2022-08-10T06:01:27.480Z,54.85
2022-08-10T06:02:34.164Z,55.44
2022-08-10T06:03:27.476Z,55.42
2022-08-10T06:04:26.459Z,54.92
2022-08-10T06:05:26.447Z,54.85
2022-08-10T06:06:26.430Z,54.74
2022-08-10T06:07:26.441Z,55.50
2022-08-10T06:08:26.814Z,56.00
2022-08-10T06:09:26.401Z,57.43
2022-08-10T06:10:32.346Z,57.23
2022-08-10T06:12:23.574Z,57.33
2022-08-10T06:12:29.794Z,57.63
2022-08-10T06:13:30.332Z,56.93
2022-08-10T06:14:28.323Z,57.63
2022-08-10T06:15:50.536Z,57.33
2022-08-10T06:16:27.346Z,56.90
2022-08-10T06:17:26.334Z,55.87
2022-08-10T06:18:26.325Z,56.50
2022-08-10T06:19:26.337Z,56.60
2022-08-10T06:20:26.310Z,56.80
2022-08-10T06:21:26.328Z,57.20
2022-08-10T06:22:26.373Z,57.93
2022-08-10T06:23:26.304Z,57.96
2022-08-10T06:24:30.778Z,57.83
2022-08-10T06:26:10.065Z,57.53
2022-08-10T06:26:28.274Z,57.86
2022-08-10T06:27:34.741Z,57.33
2022-08-10T06:28:27.262Z,57.83
2022-08-10T06:29:26.237Z,57.40
2022-08-10T06:30:26.252Z,57.50
2022-08-10T06:31:26.230Z,56.77
2022-08-10T06:32:26.217Z,56.52
2022-08-10T06:33:26.227Z,55.29
2022-08-10T06:34:26.199Z,54.60
2022-08-10T06:35:26.190Z,54.52
2022-08-10T06:36:26.183Z,55.59
2022-08-10T06:37:27.168Z,55.19
2022-08-10T06:38:26.166Z,54.79
2022-08-10T06:39:34.876Z,54.97
2022-08-10T06:40:28.201Z,54.34
2022-08-10T06:41:58.067Z,53.74
2022-08-10T06:42:27.129Z,54.34
2022-08-10T06:43:26.124Z,53.52
2022-08-10T06:44:26.128Z,53.74
2022-08-10T06:45:26.106Z,53.31
2022-08-10T06:46:26.103Z,53.31
2022-08-10T06:47:26.103Z,52.99
2022-08-10T06:48:26.084Z,52.27
2022-08-10T06:49:26.074Z,52.14
2022-08-10T06:50:34.484Z,51.25
2022-08-10T06:51:27.072Z,51.25
2022-08-10T06:52:26.054Z,50.95
2022-08-10T06:53:53.359Z,51.15
2022-08-10T06:54:27.738Z,50.35
2022-08-10T06:55:27.345Z,50.82
2022-08-10T06:56:38.134Z,50.70
2022-08-10T06:57:27.009Z,49.78
2022-08-10T06:58:26.864Z,49.55
2022-08-10T06:59:26.819Z,50.00
2022-08-10T07:00:32.427Z,50.48
2022-08-10T07:01:27.071Z,49.18
2022-08-10T07:02:25.985Z,50.35
2022-08-10T07:03:25.980Z,48.46
2022-08-10T07:04:32.501Z,49.06
2022-08-10T07:05:26.954Z,48.46
2022-08-10T07:06:25.943Z,48.26
2022-08-10T07:07:25.947Z,49.38
2022-08-10T07:08:25.935Z,49.70
2022-08-10T07:09:25.927Z,50.50
2022-08-10T07:10:26.269Z,50.23
2022-08-10T07:11:26.905Z,50.62
2022-08-10T07:12:25.915Z,50.60
2022-08-10T07:14:15.458Z,50.70
2022-08-10T07:14:26.880Z,50.10
2022-08-10T07:15:59.474Z,50.32
2022-08-10T07:16:26.873Z,50.00
2022-08-10T07:17:25.856Z,50.32
2022-08-10T07:18:25.849Z,50.62
2022-08-10T07:19:25.840Z,50.82
2022-08-10T07:20:25.859Z,50.25
2022-08-10T07:21:25.837Z,50.65
2022-08-10T07:23:27.033Z,50.67
2022-08-10T07:23:55.159Z,50.55
2022-08-10T07:24:26.800Z,50.85
2022-08-10T07:25:25.798Z,50.85
2022-08-10T07:26:25.786Z,50.65
2022-08-10T07:27:25.810Z,51.15
2022-08-10T07:28:26.778Z,50.95
2022-08-10T07:29:52.883Z,50.87
2022-08-10T07:30:27.750Z,51.05
2022-08-10T07:31:36.846Z,51.17
2022-08-10T07:32:26.867Z,50.77
2022-08-10T07:33:25.764Z,50.97
2022-08-10T07:34:29.195Z,50.97
2022-08-10T07:35:25.722Z,50.55
2022-08-10T07:36:25.726Z,50.95
2022-08-10T07:37:25.716Z,50.77
2022-08-10T07:38:25.725Z,50.67
2022-08-10T07:40:02.189Z,50.97
2022-08-10T07:40:26.810Z,51.27
2022-08-10T07:41:25.691Z,50.74
2022-08-10T07:42:25.668Z,50.43
2022-08-10T07:43:26.776Z,50.60
2022-08-10T07:44:25.647Z,49.68
2022-08-10T07:45:25.647Z,49.08
2022-08-10T07:46:25.646Z,49.08
2022-08-10T07:47:53.066Z,48.98
2022-08-10T07:48:27.644Z,48.38
2022-08-10T07:49:25.677Z,48.98
2022-08-10T07:50:25.622Z,48.61
2022-08-10T07:51:25.602Z,48.98
2022-08-10T07:52:25.599Z,49.08
2022-08-10T07:53:25.613Z,48.16
2022-08-10T07:54:25.574Z,48.76
2022-08-10T07:56:05.895Z,48.66
2022-08-10T07:56:47.868Z,48.26
2022-08-10T07:57:31.452Z,48.76
2022-08-10T07:58:26.572Z,48.36
2022-08-10T07:59:25.541Z,48.56
2022-08-10T08:00:25.525Z,48.49
2022-08-10T08:01:25.538Z,48.98
2022-08-10T08:02:25.516Z,48.26
2022-08-10T08:03:25.626Z,48.54
2022-08-10T08:04:25.503Z,48.64
2022-08-10T08:05:27.549Z,48.04
2022-08-10T08:06:26.495Z,48.44
2022-08-10T08:07:25.474Z,47.92
2022-08-10T08:08:25.472Z,48.11
2022-08-10T08:09:25.473Z,48.19
2022-08-10T08:10:25.451Z,47.89
2022-08-10T08:11:26.633Z,48.11
2022-08-10T08:12:25.444Z,48.24
2022-08-10T08:13:25.431Z,48.24
2022-08-10T08:14:25.434Z,48.54
2022-08-10T08:16:20.840Z,48.24
2022-08-10T08:16:26.424Z,48.79
2022-08-10T08:17:25.398Z,49.78
2022-08-10T08:18:26.395Z,49.36
2022-08-10T08:19:35.451Z,48.44
2022-08-10T08:20:27.374Z,48.11
2022-08-10T08:24:02.712Z,47.99
2022-08-10T08:24:05.538Z,47.10
2022-08-10T08:24:14.786Z,47.97
2022-08-10T08:24:32.587Z,47.00
2022-08-10T08:25:26.339Z,48.02
2022-08-10T08:26:25.323Z,48.22
2022-08-10T08:27:26.326Z,48.32
2022-08-10T08:28:25.304Z,47.92
2022-08-10T08:29:25.300Z,48.19
2022-08-10T08:30:27.840Z,47.99
2022-08-10T08:31:25.294Z,48.10
2022-08-10T08:32:25.265Z,48.10
2022-08-10T08:33:42.596Z,48.22
2022-08-10T08:34:26.262Z,48.22
2022-08-10T08:35:25.254Z,48.41
2022-08-10T08:36:25.254Z,47.99
2022-08-10T08:38:32.172Z,47.89
2022-08-10T08:38:33.280Z,47.80
2022-08-10T08:39:26.270Z,47.89
2022-08-10T08:40:25.214Z,47.47
2022-08-10T08:41:25.219Z,47.28
2022-08-10T08:42:25.201Z,47.16
2022-08-10T08:43:29.701Z,46.95
2022-08-10T08:44:29.560Z,46.14
2022-08-10T08:45:26.175Z,45.64
2022-08-10T08:46:25.171Z,45.47
2022-08-10T08:48:04.050Z,46.36
2022-08-10T08:48:26.147Z,45.15
2022-08-10T08:50:05.554Z,45.34
2022-08-10T08:50:26.139Z,45.45
2022-08-10T08:52:07.039Z,45.74
2022-08-10T08:52:26.128Z,45.54
2022-08-10T08:53:25.181Z,45.54
2022-08-10T08:54:26.104Z,45.74
2022-08-10T08:56:04.021Z,44.13
2022-08-10T08:56:26.088Z,44.45
2022-08-10T08:57:49.379Z,43.93
2022-08-10T08:58:26.079Z,44.04
2022-08-10T08:59:25.073Z,44.21
2022-08-10T09:00:25.057Z,43.70
2022-08-10T09:01:40.573Z,43.10
2022-08-10T09:02:26.041Z,42.92
2022-08-10T09:03:28.172Z,43.24
2022-08-10T09:04:26.024Z,44.06
2022-08-10T09:05:25.026Z,44.55
2022-08-10T09:06:25.023Z,44.25
2022-08-10T09:07:58.955Z,44.23
2022-08-10T09:08:25.995Z,44.13
2022-08-10T09:09:24.984Z,43.54
2022-08-10T09:10:24.983Z,44.13
2022-08-10T09:11:24.976Z,43.24
2022-08-10T09:12:24.963Z,42.37
2022-08-10T09:13:24.965Z,42.86
2022-08-10T09:14:25.893Z,42.74
2022-08-10T09:15:40.976Z,40.36
2022-08-10T09:16:25.933Z,41.46
2022-08-10T09:17:24.935Z,41.26
2022-08-10T09:18:24.913Z,41.26
2022-08-10T09:19:35.061Z,40.94
2022-08-10T09:20:25.910Z,41.53
2022-08-10T09:21:24.885Z,40.96
2022-08-10T09:22:25.879Z,40.76
2022-08-10T09:24:05.154Z,42.77
2022-08-10T09:24:25.874Z,41.77
2022-08-10T09:25:24.858Z,41.97
2022-08-10T09:26:24.847Z,42.66
2022-08-10T09:27:24.841Z,42.47
2022-08-10T09:28:26.634Z,42.37
2022-08-10T09:29:24.832Z,42.96
2022-08-10T09:30:28.401Z,42.57
2022-08-10T09:31:26.173Z,41.85
2022-08-10T09:36:15.818Z,40.47
2022-08-10T09:36:24.249Z,39.65
2022-08-10T09:36:24.604Z,39.53
2022-08-10T09:36:29.808Z,40.25
2022-08-10T09:36:32.620Z,38.54
2022-08-10T09:38:00.793Z,38.07
2022-08-10T09:38:25.775Z,37.96
2022-08-10T09:40:12.392Z,39.53
2022-08-10T09:41:00.641Z,39.43
2022-08-10T09:41:25.756Z,38.05
2022-08-10T09:42:24.745Z,37.95
2022-08-10T09:43:25.321Z,38.94
2022-08-10T09:44:25.758Z,38.94
2022-08-10T09:45:24.704Z,37.83
2022-08-10T09:46:27.566Z,37.85
2022-08-10T09:47:59.996Z,38.05
2022-08-10T09:48:25.685Z,39.04
2022-08-10T09:49:52.932Z,39.04
2022-08-10T09:50:26.674Z,38.15
2022-08-10T09:51:44.881Z,38.34
2022-08-10T09:52:26.670Z,38.44
2022-08-10T09:53:24.656Z,38.24
2022-08-10T09:54:24.648Z,38.84
2022-08-10T09:55:24.629Z,39.45
2022-08-10T09:56:28.669Z,39.15
2022-08-10T09:57:44.444Z,38.76
2022-08-10T09:58:26.597Z,38.76
2022-08-10T09:59:26.902Z,38.85
2022-08-10T10:00:25.585Z,39.04
2022-08-10T10:02:02.470Z,37.85
2022-08-10T10:02:25.577Z,38.82
2022-08-10T10:03:26.112Z,37.34
2022-08-10T10:04:25.575Z,37.43
2022-08-10T10:05:25.545Z,37.24
2022-08-10T10:06:24.533Z,37.26
2022-08-10T10:07:24.529Z,37.93
2022-08-10T10:08:24.525Z,37.26
2022-08-10T10:10:47.477Z,37.65
2022-08-10T10:11:44.761Z,37.15
2022-08-10T10:12:44.754Z,37.65
2022-08-10T10:14:02.944Z,37.65
2022-08-10T10:14:45.961Z,38.15
2022-08-10T10:15:45.778Z,37.34
2022-08-10T10:17:52.192Z,37.13
2022-08-10T10:18:52.180Z,37.04
2022-08-10T10:19:52.189Z,36.84
2022-08-10T10:20:52.174Z,38.01
2022-08-10T10:21:55.493Z,37.02
2022-08-10T10:22:53.250Z,37.02
2022-08-10T10:24:19.964Z,37.43
2022-08-10T10:24:55.226Z,37.32
2022-08-10T10:25:56.505Z,37.43
2022-08-10T10:26:54.225Z,37.34
2022-08-10T10:27:53.198Z,37.63
2022-08-10T10:29:58.001Z,38.51
2022-08-10T10:30:53.342Z,37.41
2022-08-10T10:31:53.192Z,38.31
2022-08-10T10:32:57.869Z,37.81
2022-08-10T10:33:55.153Z,38.72
2022-08-10T10:34:53.230Z,39.02
2022-08-10T10:35:54.015Z,38.32
2022-08-10T10:36:53.165Z,38.13
2022-08-10T10:38:01.382Z,37.13
2022-08-10T10:38:54.315Z,37.53
2022-08-10T10:39:54.244Z,38.31
2022-08-10T10:40:53.164Z,38.11
2022-08-10T10:42:03.449Z,38.40
2022-08-10T10:42:54.436Z,39.10
2022-08-10T10:43:53.098Z,38.01
2022-08-10T10:44:53.293Z,37.99
2022-08-10T10:45:53.270Z,37.91
2022-08-10T10:46:54.533Z,37.40
2022-08-10T10:47:54.234Z,36.80
2022-08-10T10:48:53.198Z,37.20
2022-08-10T10:49:53.062Z,36.21
2022-08-10T10:50:53.452Z,36.41
2022-08-10T10:51:55.519Z,35.82
2022-08-10T10:52:54.291Z,37.10
2022-08-10T10:53:52.996Z,36.01
2022-08-10T10:54:54.565Z,35.91
2022-08-10T10:56:14.754Z,36.31
2022-08-10T10:56:54.118Z,36.51
2022-08-10T10:58:00.401Z,36.31
2022-08-10T10:58:54.096Z,36.01
2022-08-10T10:59:55.714Z,35.53
2022-08-10T11:00:53.645Z,36.61
2022-08-10T11:01:52.990Z,36.13
2022-08-10T11:03:26.085Z,36.82
2022-08-10T11:03:52.912Z,36.72
2022-08-10T11:04:57.034Z,36.74
2022-08-10T11:05:53.896Z,38.13
2022-08-10T11:06:52.916Z,36.03
2022-08-10T11:07:53.362Z,36.72
2022-08-10T11:08:54.017Z,36.61
2022-08-10T11:10:09.205Z,37.22
2022-08-10T11:10:53.907Z,37.62
2022-08-10T11:12:01.646Z,37.71
2022-08-10T11:12:53.894Z,37.62
2022-08-10T11:14:25.578Z,36.90
2022-08-10T11:14:53.956Z,36.03
2022-08-10T11:15:52.830Z,36.41
2022-08-10T11:16:57.338Z,36.11
2022-08-10T11:17:54.836Z,34.51
2022-08-10T11:18:52.804Z,34.73
2022-08-10T11:20:00.130Z,34.63
2022-08-10T11:20:53.777Z,34.53
2022-08-10T11:21:52.787Z,34.83
2022-08-10T11:22:52.756Z,35.32
2022-08-10T11:24:44.491Z,35.80
2022-08-10T11:24:53.744Z,35.21
2022-08-10T11:25:52.734Z,34.39
2022-08-10T11:26:52.726Z,33.80
2022-08-10T11:27:52.713Z,32.53
2022-08-10T11:28:53.311Z,32.93
2022-08-10T11:29:52.704Z,33.13
2022-08-10T11:30:52.701Z,33.92
2022-08-10T11:31:52.700Z,34.41
2022-08-10T11:32:52.677Z,33.03
2022-08-10T11:35:11.256Z,33.73
2022-08-10T11:35:53.656Z,33.64
2022-08-10T11:36:52.659Z,33.73
2022-08-10T11:38:31.616Z,34.73
2022-08-10T11:39:13.525Z,34.83
2022-08-10T11:39:54.703Z,33.62
2022-08-10T11:40:52.628Z,33.51
2022-08-10T11:42:07.189Z,34.00
2022-08-10T11:42:53.597Z,33.21
2022-08-10T11:43:52.585Z,34.61
2022-08-10T11:44:52.583Z,33.82
2022-08-10T11:45:54.361Z,34.20
2022-08-10T11:46:52.568Z,34.00
2022-08-10T11:47:52.555Z,33.80
2022-08-10T11:48:57.003Z,33.70
2022-08-10T11:49:53.536Z,33.70
2022-08-10T11:50:52.535Z,34.61
2022-08-10T11:51:52.520Z,35.30
2022-08-10T11:52:52.530Z,34.71
2022-08-10T11:53:52.508Z,34.61
2022-08-10T11:54:52.501Z,34.71
2022-08-10T11:55:52.490Z,34.81
2022-08-10T11:56:52.485Z,34.81
2022-08-10T11:57:54.714Z,33.72
2022-08-10T11:58:52.472Z,34.03
2022-08-10T11:59:58.216Z,35.12
2022-08-10T12:00:53.448Z,34.13
2022-08-10T12:01:52.463Z,34.15
2022-08-10T12:02:53.277Z,34.84
2022-08-10T12:03:52.432Z,35.04
2022-08-10T12:04:52.419Z,34.64
2022-08-10T12:05:55.048Z,35.04
2022-08-10T12:06:55.724Z,34.73
2022-08-10T12:10:02.351Z,34.63
2022-08-10T12:10:06.567Z,33.62
2022-08-10T12:10:09.931Z,33.14
2022-08-10T12:10:53.374Z,33.13
2022-08-10T12:11:52.374Z,33.42
2022-08-10T12:12:52.365Z,33.13
2022-08-10T12:14:17.894Z,33.72
2022-08-10T12:14:54.343Z,33.82
2022-08-10T12:15:52.332Z,33.62
2022-08-10T12:16:52.331Z,33.44
2022-08-10T12:17:52.333Z,32.95
2022-08-10T12:18:52.307Z,32.65
2022-08-10T12:19:59.649Z,32.64
2022-08-10T12:20:53.305Z,33.84
2022-08-10T12:21:52.286Z,33.24
2022-08-10T12:22:52.286Z,33.42
2022-08-10T12:24:02.918Z,32.85
2022-08-10T12:24:53.266Z,33.14
2022-08-10T12:25:56.578Z,33.52
2022-08-10T12:26:53.245Z,32.24
2022-08-10T12:27:53.267Z,33.42
2022-08-10T12:28:52.324Z,33.33
2022-08-10T12:29:52.235Z,32.64
2022-08-10T12:30:52.229Z,33.03
2022-08-10T12:31:52.219Z,33.52
2022-08-10T12:32:52.204Z,33.44
2022-08-10T12:33:58.120Z,33.73
2022-08-10T12:34:53.209Z,33.34
2022-08-10T12:36:15.250Z,33.54
2022-08-10T12:36:54.170Z,32.93
2022-08-10T12:37:52.154Z,33.33
2022-08-10T12:38:52.158Z,33.72
2022-08-10T12:39:52.214Z,32.34
2022-08-10T12:40:52.144Z,32.83
2022-08-10T12:41:52.128Z,31.94
2022-08-10T12:43:13.043Z,32.03
2022-08-10T12:44:04.850Z,31.53
2022-08-10T12:44:53.113Z,32.03
2022-08-10T12:45:52.109Z,32.03
2022-08-10T12:46:52.088Z,30.92
2022-08-10T12:47:52.084Z,31.53
2022-08-10T12:48:52.084Z,31.54
2022-08-10T12:50:29.600Z,32.24
2022-08-10T12:50:53.079Z,32.04
2022-08-10T12:51:52.070Z,33.41
2022-08-10T12:52:52.064Z,33.52
2022-08-10T12:53:52.045Z,33.11
2022-08-10T12:54:52.037Z,32.93
2022-08-10T12:55:52.029Z,32.92
2022-08-10T12:56:52.021Z,33.01
2022-08-10T12:57:52.668Z,32.22
2022-08-10T12:58:59.691Z,32.83